Birmingham, United Kingdom

10:36 PM BST on April 27, 2015 (GMT +0100)
I90579489 | | Change Station
CLOSE
Current Station
Personal Weather Station
Location: Solihull, West Midlands
Elevation: 394 ft
Nearby Weather Stations

Elev 394 ft 52.41 °N, 1.76 °W | Updated 16 seconds ago

Mostly Cloudy
Mostly Cloudy
40.8 °F
Feels Like 41 °F
N
0.0
Wind Variable Wind from NNW
Gusts 3.5 mph

Today
High -- | Low -- °F
--% Chance of Precip.
Yesterday
High -- | Low -- °F
Precip. -- in
5:44 AM 8:25 PM
Waxing Gibbous, 68% visible
Pressure 29.86 in
Visibility 6.2 miles
Clouds Scattered Clouds 3700 ft
Mostly Cloudy 4500 ft
Windchill 41 °F
Dew Point 34 °F
Humidity 78%
Rainfall 0.00 in
Snow Depth Not available.
UV 0 out of 12
Pollen Not available.
Air Quality Not available.
Flu Activity Not available.
METAR EGBB 272120Z 28007KT 9999 SCT037 BKN045 06/02 Q1011

More Conditions Fewer Conditions

Pressure 29.86 in
Visibility 6.2 miles
Clouds Scattered Clouds 3700 ft
Mostly Cloudy 4500 ft
Windchill 41 °F
Dew Point 34 °F
Humidity 78%
Rainfall 0.00 in
Snow Depth Not available.
UV 0 out of 12
Pollen Not available.
Air Quality Not available.
Flu Activity Not available.
METAR EGBB 272120Z 28007KT 9999 SCT037 BKN045 06/02 Q1011

More Conditions Fewer Conditions

10-Day Weather Forecast

Almanac

Astronomy

Apr. 27, 2015 Rise Set
Actual Time
Civil Twilight
Nautical Twilight
Astronomical Twilight
Moon
Length of Visible Light
Length of Day
Tomorrow will be .
, % of the Moon is Illuminated

Today's Extremes

Country Highs Country Lows

Community

WunderPhotos

Upload Photos

1,817,435 photos uploaded!

WunderBlogs® & News

Nearby

Air Quality

  Air Quality AQ Index Pollutant
Not available.

Snow Depth

Station Depth Elevation

Earthquake Activity

City Distance Mag. Time & Date
Minimum magnitude displayed is 2.5.

Coastal Water Temperatures

Place Temperature

Stations

Nearby Weather Stations

Station Location Temp. Windchill Dew Point Humidity Wind Precip. Elev Updated Type